createdAt,value
2019-02-25T00:00:15.579Z,-1.3
2019-02-25T00:01:01.523Z,-1.3
2019-02-25T00:01:47.512Z,-1.3
2019-02-25T00:02:33.468Z,-1.3
2019-02-25T00:03:19.395Z,-1.3
2019-02-25T00:04:05.339Z,-1.3
2019-02-25T00:04:51.268Z,-1.3
2019-02-25T00:05:37.201Z,-1.3
2019-02-25T00:06:23.175Z,-1.3
2019-02-25T00:07:09.097Z,-1.3
2019-02-25T00:07:55.049Z,-1.3
2019-02-25T00:08:40.982Z,-1.3
2019-02-25T00:09:26.903Z,-1.3
2019-02-25T00:10:12.820Z,-1.2
2019-02-25T00:10:58.740Z,-1.2
2019-02-25T00:11:44.695Z,-1.2
2019-02-25T00:12:30.629Z,-1.2
2019-02-25T00:13:16.554Z,-1.2
2019-02-25T00:14:02.496Z,-1.3
2019-02-25T00:14:48.408Z,-1.3
2019-02-25T00:15:34.363Z,-1.3
2019-02-25T00:16:20.301Z,-1.3
2019-02-25T00:17:06.274Z,-1.4
2019-02-25T00:17:52.194Z,-1.4
2019-02-25T00:18:38.142Z,-1.4
2019-02-25T00:19:24.062Z,-1.4
2019-02-25T00:20:10.001Z,-1.3
2019-02-25T00:20:55.937Z,-1.3
2019-02-25T00:21:42.080Z,-1.3
2019-02-25T00:22:28.022Z,-1.3
2019-02-25T00:23:13.949Z,-1.3
2019-02-25T00:23:59.869Z,-1.3
2019-02-25T00:24:45.805Z,-1.3
2019-02-25T00:25:31.716Z,-1.3
2019-02-25T00:26:17.653Z,-1.3
2019-02-25T00:27:03.604Z,-1.3
2019-02-25T00:27:49.518Z,-1.3
2019-02-25T00:28:35.445Z,-1.3
2019-02-25T00:29:21.366Z,-1.3
2019-02-25T00:30:07.284Z,-1.3
2019-02-25T00:30:53.207Z,-1.4
2019-02-25T00:31:39.120Z,-1.4
2019-02-25T00:32:25.062Z,-1.4
2019-02-25T00:33:10.976Z,-1.5
2019-02-25T00:33:56.954Z,-1.3
2019-02-25T00:34:42.870Z,-1.4
2019-02-25T00:35:28.796Z,-1.4
2019-02-25T00:36:14.717Z,-0.9
2019-02-25T00:37:00.709Z,-0.9
2019-02-25T00:37:46.652Z,-0.9
2019-02-25T00:38:32.607Z,-0.9
2019-02-25T00:39:18.593Z,-0.9
2019-02-25T00:40:04.523Z,-0.9
2019-02-25T00:40:50.443Z,-0.9
2019-02-25T00:41:36.361Z,-1
2019-02-25T00:42:22.326Z,-1.1
2019-02-25T00:43:08.265Z,-1.1
2019-02-25T00:43:54.190Z,-1.1
2019-02-25T00:44:40.109Z,-1.2
2019-02-25T00:45:26.034Z,-1.3
2019-02-25T00:46:11.959Z,-1.3
2019-02-25T00:46:57.873Z,-1.3
2019-02-25T00:47:43.847Z,-1.4
2019-02-25T00:48:29.765Z,-1.4
2019-02-25T00:49:15.694Z,-1.4
2019-02-25T00:50:01.616Z,-1.4
2019-02-25T00:50:47.541Z,-1.4
2019-02-25T00:51:33.462Z,-1.4
2019-02-25T00:52:19.393Z,-1.4
2019-02-25T00:53:05.336Z,-1.4
2019-02-25T00:53:51.251Z,-1.4
2019-02-25T00:54:37.174Z,-1.4
2019-02-25T00:55:23.094Z,-1.4
2019-02-25T00:56:09.017Z,-1.4
2019-02-25T00:56:54.945Z,-1.4
2019-02-25T00:57:40.891Z,-1.3
2019-02-25T00:58:26.834Z,-1.3
2019-02-25T00:59:12.760Z,-1.3
2019-02-25T00:59:58.682Z,-1.4
2019-02-25T01:00:44.710Z,-1.4
2019-02-25T01:01:30.658Z,-1.4
2019-02-25T01:02:16.573Z,-1.4
2019-02-25T01:03:02.535Z,-1.4
2019-02-25T01:03:48.461Z,-1.4
2019-02-25T01:04:34.385Z,-1.5
2019-02-25T01:05:20.328Z,-1.6
2019-02-25T01:06:06.248Z,-1.6
2019-02-25T01:06:52.173Z,-1.7
2019-02-25T01:07:38.122Z,-1.8
2019-02-25T01:08:24.090Z,-1.8
2019-02-25T01:09:10.003Z,-1.8
2019-02-25T01:09:55.925Z,-1.9
2019-02-25T01:10:41.861Z,-1.9
2019-02-25T01:11:27.777Z,-2
2019-02-25T01:12:13.699Z,-2.1
2019-02-25T01:12:59.637Z,-2.2
2019-02-25T01:13:45.615Z,-2.2
2019-02-25T01:14:31.572Z,-2.2
2019-02-25T01:15:17.513Z,-2.2
2019-02-25T01:16:03.451Z,-2.3
2019-02-25T01:16:49.368Z,-2.2
2019-02-25T01:17:35.289Z,-2.1
2019-02-25T01:18:21.247Z,-2.1
2019-02-25T01:19:07.177Z,-2.1
2019-02-25T01:19:53.103Z,-2
2019-02-25T01:20:39.021Z,-1.9
2019-02-25T01:21:24.952Z,-1.8
2019-02-25T01:22:10.860Z,-1.8
2019-02-25T01:22:56.795Z,-1.7
2019-02-25T01:23:42.754Z,-1.7
2019-02-25T01:24:28.697Z,-1.7
2019-02-25T01:25:14.620Z,-1.7
2019-02-25T01:26:00.548Z,-1.7
2019-02-25T01:26:46.464Z,-1.8
2019-02-25T01:27:32.374Z,-1.8
2019-02-25T01:28:18.338Z,-1.9
2019-02-25T01:29:04.294Z,-1.9
2019-02-25T01:29:50.225Z,-1.9
2019-02-25T01:30:36.149Z,-2
2019-02-25T01:31:22.091Z,-2.1
2019-02-25T01:32:08.005Z,-2.1
2019-02-25T01:32:53.931Z,-2.2
2019-02-25T01:33:39.898Z,-2.2
2019-02-25T01:34:25.817Z,-2.3
2019-02-25T01:35:11.732Z,-2.3
2019-02-25T01:35:57.660Z,-2.4
2019-02-25T01:36:43.577Z,-2.4
2019-02-25T01:37:29.499Z,-2.4
2019-02-25T01:38:15.744Z,-2.5
2019-02-25T01:39:01.769Z,-2.4
2019-02-25T01:39:47.699Z,-2.4
2019-02-25T01:40:33.640Z,-2.4
2019-02-25T01:41:19.560Z,-2.4
2019-02-25T01:42:05.477Z,-2.4
2019-02-25T01:42:51.392Z,-2.3
2019-02-25T01:43:37.302Z,-2.2
2019-02-25T01:44:23.272Z,-2.2
2019-02-25T01:45:09.195Z,-2.2
2019-02-25T01:45:55.125Z,-2.2
2019-02-25T01:46:41.039Z,-2.3
2019-02-25T01:47:26.968Z,-2.3
2019-02-25T01:48:12.880Z,-2.3
2019-02-25T01:48:58.830Z,-2.3
2019-02-25T01:49:44.748Z,-2.3
2019-02-25T01:50:30.668Z,-2.3
2019-02-25T01:51:16.631Z,-2.3
2019-02-25T01:52:02.579Z,-2.4
2019-02-25T01:52:48.505Z,-2.4
2019-02-25T01:53:34.482Z,-2.5
2019-02-25T01:54:20.423Z,-2.5
2019-02-25T01:55:06.347Z,-2.5
2019-02-25T01:55:52.259Z,-2.5
2019-02-25T01:56:38.206Z,-2.6
2019-02-25T01:57:24.128Z,-2.6
2019-02-25T01:58:10.051Z,-2.7
2019-02-25T01:58:56.009Z,-2.7
2019-02-25T01:59:41.944Z,-2.7
2019-02-25T02:00:27.970Z,-2.7
2019-02-25T02:01:18.935Z,-2.8
2019-02-25T02:02:04.850Z,-2.9
2019-02-25T02:02:50.774Z,-2.9
2019-02-25T02:03:36.688Z,-2.9
2019-02-25T02:04:22.652Z,-2.9
2019-02-25T02:05:08.583Z,-2.9
2019-02-25T02:05:54.522Z,-2.9
2019-02-25T02:06:40.436Z,-2.9
2019-02-25T02:07:26.361Z,-2.9
2019-02-25T02:08:12.323Z,-2.9
2019-02-25T02:08:58.254Z,-2.9
2019-02-25T02:09:44.217Z,-2.9
2019-02-25T02:10:30.149Z,-2.9
2019-02-25T02:11:16.092Z,-2.9
2019-02-25T02:12:02.030Z,-2.9
2019-02-25T02:12:47.981Z,-2.9
2019-02-25T02:13:33.907Z,-2.8
2019-02-25T02:14:19.872Z,-2.8
2019-02-25T02:15:05.807Z,-2.8
2019-02-25T02:15:51.751Z,-2.9
2019-02-25T02:16:37.668Z,-2.9
2019-02-25T02:17:23.587Z,-2.9
2019-02-25T02:18:09.568Z,-2.9
2019-02-25T02:18:55.502Z,-2.9
2019-02-25T02:19:41.469Z,-2.9
2019-02-25T02:20:27.404Z,-2.9
2019-02-25T02:21:13.334Z,-2.9
2019-02-25T02:21:59.261Z,-2.9
2019-02-25T02:22:45.196Z,-2.9
2019-02-25T02:23:31.134Z,-2.8
2019-02-25T02:24:17.062Z,-2.9
2019-02-25T02:25:03.031Z,-2.9
2019-02-25T02:25:48.967Z,-2.9
2019-02-25T02:26:34.918Z,-2.9
2019-02-25T02:27:20.863Z,-2.9
2019-02-25T02:28:06.819Z,-2.9
2019-02-25T02:28:52.753Z,-2.9
2019-02-25T02:29:38.736Z,-2.9
2019-02-25T02:30:24.661Z,-2.8
2019-02-25T02:31:10.593Z,-2.9
2019-02-25T02:31:56.576Z,-2.9
2019-02-25T02:32:42.505Z,-2.9
2019-02-25T02:33:28.447Z,-2.9
2019-02-25T02:34:14.395Z,-3
2019-02-25T02:35:00.534Z,-3
2019-02-25T02:35:46.488Z,-3.1
2019-02-25T02:36:32.419Z,-3.1
2019-02-25T02:37:18.347Z,-3.1
2019-02-25T02:38:04.266Z,-3.1
2019-02-25T02:38:50.190Z,-3.1
2019-02-25T02:39:36.123Z,-3
2019-02-25T02:40:22.094Z,-3.1
2019-02-25T02:41:08.029Z,-3
2019-02-25T02:41:53.950Z,-3
2019-02-25T02:42:39.887Z,-3
2019-02-25T02:43:25.820Z,-3
2019-02-25T02:44:11.738Z,-3
2019-02-25T02:44:57.690Z,-3
2019-02-25T02:45:43.610Z,-2.9
2019-02-25T02:46:29.537Z,-2.9
2019-02-25T02:47:15.459Z,-2.9
2019-02-25T02:48:01.392Z,-2.8
2019-02-25T02:48:47.303Z,-2.7
2019-02-25T02:49:33.227Z,-2.6
2019-02-25T02:50:19.188Z,-2.6
2019-02-25T02:51:05.115Z,-2.6
2019-02-25T02:51:51.043Z,-2.6
2019-02-25T02:52:36.971Z,-2.6
2019-02-25T02:53:22.902Z,-2.6
2019-02-25T02:54:08.847Z,-2.6
2019-02-25T02:54:54.776Z,-2.6
2019-02-25T02:55:40.729Z,-2.6
2019-02-25T02:56:26.664Z,-2.6
2019-02-25T02:57:12.594Z,-2.6
2019-02-25T02:57:58.510Z,-2.6
2019-02-25T02:58:44.447Z,-2.6
2019-02-25T02:59:30.393Z,-2.6
2019-02-25T03:00:16.331Z,-2.6
2019-02-25T03:01:02.291Z,-2.6
2019-02-25T03:01:48.213Z,-2.6
2019-02-25T03:02:34.162Z,-2.6
2019-02-25T03:03:20.090Z,-2.6
2019-02-25T03:04:06.011Z,-2.6
2019-02-25T03:04:51.932Z,-2.6
2019-02-25T03:05:37.889Z,-2.6
2019-02-25T03:06:23.816Z,-2.6
2019-02-25T03:07:09.743Z,-2.6
2019-02-25T03:07:55.660Z,-2.6
2019-02-25T03:08:41.591Z,-2.5
2019-02-25T03:09:27.516Z,-2.6
2019-02-25T03:10:13.449Z,-2.6
2019-02-25T03:10:59.400Z,-2.5
2019-02-25T03:11:45.325Z,-2.5
2019-02-25T03:12:31.255Z,-2.5
2019-02-25T03:13:17.190Z,-2.5
2019-02-25T03:14:03.125Z,-2.5
2019-02-25T03:14:49.056Z,-2.5
2019-02-25T03:15:34.978Z,-2.6
2019-02-25T03:16:20.924Z,-2.6
2019-02-25T03:17:06.845Z,-2.6
2019-02-25T03:17:52.781Z,-2.6
2019-02-25T03:18:38.702Z,-2.6
2019-02-25T03:19:24.633Z,-2.6
2019-02-25T03:20:10.563Z,-2.6
2019-02-25T03:20:56.510Z,-2.5
2019-02-25T03:21:42.434Z,-2.5
2019-02-25T03:22:28.349Z,-2.5
2019-02-25T03:23:14.273Z,-2.5
2019-02-25T03:24:00.238Z,-2.5
2019-02-25T03:24:46.158Z,-2.5
2019-02-25T03:25:32.072Z,-2.4
2019-02-25T03:26:18.022Z,-2.4
2019-02-25T03:27:03.951Z,-2.4
2019-02-25T03:27:49.897Z,-2.4
2019-02-25T03:28:35.819Z,-2.5
2019-02-25T03:29:21.745Z,-2.5
2019-02-25T03:30:07.672Z,-2.5
2019-02-25T03:30:53.660Z,-2.5
2019-02-25T03:31:39.623Z,-2.5
2019-02-25T03:32:25.542Z,-2.5
2019-02-25T03:33:11.465Z,-2.6
2019-02-25T03:33:57.376Z,-2.6
2019-02-25T03:34:43.303Z,-2.6
2019-02-25T03:35:29.227Z,-2.6
2019-02-25T03:36:15.172Z,-2.6
2019-02-25T03:37:01.099Z,-2.6
2019-02-25T03:37:47.020Z,-2.6
2019-02-25T03:38:32.937Z,-2.6
2019-02-25T03:39:18.844Z,-2.6
2019-02-25T03:40:04.765Z,-2.6
2019-02-25T03:40:50.695Z,-2.6
2019-02-25T03:41:36.654Z,-2.6
2019-02-25T03:42:22.567Z,-2.6
2019-02-25T03:43:08.481Z,-2.6
2019-02-25T03:43:54.405Z,-2.6
2019-02-25T03:44:40.331Z,-2.6
2019-02-25T03:45:26.261Z,-2.6
2019-02-25T03:46:12.215Z,-2.6
2019-02-25T03:46:58.145Z,-2.6
2019-02-25T03:47:44.071Z,-2.6
2019-02-25T03:48:29.983Z,-2.6
2019-02-25T03:49:15.898Z,-2.6
2019-02-25T03:50:01.824Z,-2.6
2019-02-25T03:50:47.746Z,-2.6
2019-02-25T03:51:33.714Z,-2.6
2019-02-25T03:52:19.625Z,-2.6
2019-02-25T03:53:05.552Z,-2.6
2019-02-25T03:53:51.490Z,-2.6
2019-02-25T03:54:37.426Z,-2.6
2019-02-25T03:55:23.353Z,-2.6
2019-02-25T03:56:09.291Z,-2.6
2019-02-25T03:56:55.220Z,-2.6
2019-02-25T03:57:41.154Z,-2.6
2019-02-25T03:58:27.073Z,-2.6
2019-02-25T03:59:13.000Z,-2.6
2019-02-25T03:59:58.921Z,-2.6
2019-02-25T04:00:44.848Z,-2.6
2019-02-25T04:01:30.806Z,-2.6
2019-02-25T04:02:16.728Z,-2.6
2019-02-25T04:03:02.641Z,-2.6
2019-02-25T04:03:48.584Z,-2.7
2019-02-25T04:04:34.496Z,-2.7
2019-02-25T04:05:20.424Z,-2.7
2019-02-25T04:06:06.392Z,-2.7
2019-02-25T04:06:52.324Z,-2.8
2019-02-25T04:07:38.248Z,-2.7
2019-02-25T04:08:24.157Z,-2.7
2019-02-25T04:09:10.091Z,-2.7
2019-02-25T04:09:56.030Z,-2.7
2019-02-25T04:10:41.963Z,-2.7
2019-02-25T04:11:27.920Z,-2.7
2019-02-25T04:12:13.848Z,-2.8
2019-02-25T04:12:59.775Z,-2.7
2019-02-25T04:13:45.718Z,-2.7
2019-02-25T04:14:31.650Z,-2.7
2019-02-25T04:15:17.569Z,-2.7
2019-02-25T04:16:03.488Z,-2.7
2019-02-25T04:16:49.458Z,-2.8
2019-02-25T04:17:35.370Z,-2.8
2019-02-25T04:18:21.285Z,-2.8
2019-02-25T04:19:07.215Z,-2.9
2019-02-25T04:19:53.128Z,-2.9
2019-02-25T04:20:39.048Z,-2.9
2019-02-25T04:21:24.966Z,-2.9
2019-02-25T04:22:10.913Z,-2.9
2019-02-25T04:22:56.847Z,-2.9
2019-02-25T04:23:42.767Z,-2.9
2019-02-25T04:24:28.690Z,-3
2019-02-25T04:25:14.627Z,-3
2019-02-25T04:26:00.567Z,-3
2019-02-25T04:26:46.511Z,-3.1
2019-02-25T04:27:32.448Z,-3.1
2019-02-25T04:28:18.382Z,-3.1
2019-02-25T04:29:04.299Z,-3.1
2019-02-25T04:29:50.437Z,-3.1
2019-02-25T04:30:36.370Z,-3.1
2019-02-25T04:31:22.301Z,-3.1
2019-02-25T04:32:08.256Z,-3.1
2019-02-25T04:32:54.214Z,-3.1
2019-02-25T04:33:40.126Z,-3.1
2019-02-25T04:34:26.071Z,-3.1
2019-02-25T04:35:12.005Z,-3.2
2019-02-25T04:35:57.953Z,-3.2
2019-02-25T04:36:43.914Z,-3.2
2019-02-25T04:37:29.847Z,-3.2
2019-02-25T04:38:15.778Z,-3.2
2019-02-25T04:39:01.695Z,-3.3
2019-02-25T04:39:47.619Z,-3.4
2019-02-25T04:40:33.543Z,-3.4
2019-02-25T04:41:19.459Z,-3.4
2019-02-25T04:42:05.410Z,-3.5
2019-02-25T04:42:51.321Z,-3.5
2019-02-25T04:43:37.241Z,-3.5
2019-02-25T04:44:23.224Z,-3.6
2019-02-25T04:45:09.175Z,-3.6
2019-02-25T04:45:55.107Z,-3.6
2019-02-25T04:46:41.038Z,-3.6
2019-02-25T04:47:26.978Z,-3.5
2019-02-25T04:48:12.898Z,-3.5
2019-02-25T04:48:58.820Z,-3.4
2019-02-25T04:49:44.744Z,-3.4
2019-02-25T04:50:30.669Z,-3.4
2019-02-25T04:51:16.597Z,-3.4
2019-02-25T04:52:02.546Z,-3.5
2019-02-25T04:52:48.464Z,-3.5
2019-02-25T04:53:34.385Z,-3.5
2019-02-25T04:54:20.306Z,-3.5
2019-02-25T04:55:06.223Z,-3.5
2019-02-25T04:55:52.145Z,-3.6
2019-02-25T04:56:38.079Z,-3.6
2019-02-25T04:57:24.037Z,-3.6
2019-02-25T04:58:09.963Z,-3.6
2019-02-25T04:58:55.905Z,-3.6
2019-02-25T04:59:41.830Z,-3.7
2019-02-25T05:00:27.866Z,-3.7
2019-02-25T05:01:18.736Z,-3.7
2019-02-25T05:02:04.645Z,-3.7
2019-02-25T05:02:50.611Z,-3.7
2019-02-25T05:03:36.552Z,-3.7
2019-02-25T05:04:22.592Z,-3.7
2019-02-25T05:05:08.537Z,-3.7
2019-02-25T05:05:54.456Z,-3.7
2019-02-25T05:06:40.401Z,-3.7
2019-02-25T05:07:26.399Z,-3.7
2019-02-25T05:08:12.358Z,-3.6
2019-02-25T05:08:58.285Z,-3.6
2019-02-25T05:09:44.206Z,-3.6
2019-02-25T05:10:30.146Z,-3.6
2019-02-25T05:11:16.080Z,-3.7
2019-02-25T05:12:02.076Z,-3.7
2019-02-25T05:12:48.026Z,-3.7
2019-02-25T05:13:33.945Z,-3.7
2019-02-25T05:14:19.871Z,-3.7
2019-02-25T05:15:05.788Z,-3.7
2019-02-25T05:15:51.707Z,-3.7
2019-02-25T05:16:39.856Z,-3.7
2019-02-25T05:17:25.987Z,-3.7
2019-02-25T05:18:11.932Z,-3.8
2019-02-25T05:18:57.847Z,-3.9
2019-02-25T05:19:43.763Z,-3.9
2019-02-25T05:20:29.674Z,-4
2019-02-25T05:21:15.583Z,-4
2019-02-25T05:22:01.514Z,-4.1
2019-02-25T05:22:47.469Z,-4.1
2019-02-25T05:23:33.420Z,-4.1
2019-02-25T05:24:19.340Z,-4.1
2019-02-25T05:25:05.256Z,-4.1
2019-02-25T05:25:51.168Z,-4.1
2019-02-25T05:26:37.095Z,-4.1
2019-02-25T05:27:23.035Z,-4.1
2019-02-25T05:28:09.035Z,-4.1
2019-02-25T05:28:54.953Z,-4.1
2019-02-25T05:29:40.877Z,-4.1
2019-02-25T05:30:26.789Z,-4
2019-02-25T05:31:12.710Z,-3.9
2019-02-25T05:31:58.641Z,-3.9
2019-02-25T05:32:44.575Z,-3.9
2019-02-25T05:33:30.533Z,-3.9
2019-02-25T05:34:16.459Z,-3.8
2019-02-25T05:35:02.376Z,-3.8
2019-02-25T05:35:48.319Z,-3.7
2019-02-25T05:36:34.233Z,-3.7
2019-02-25T05:37:20.164Z,-3.6
2019-02-25T05:38:06.142Z,-3.5
2019-02-25T05:38:52.123Z,-3.4
2019-02-25T05:39:38.066Z,-3.4
2019-02-25T05:40:23.980Z,-3.3
2019-02-25T05:41:09.911Z,-3.2
2019-02-25T05:41:55.835Z,-3.2
2019-02-25T05:42:41.780Z,-3.2
2019-02-25T05:43:27.743Z,-3.2
2019-02-25T05:44:13.674Z,-3.1
2019-02-25T05:44:59.622Z,-3.1
2019-02-25T05:45:45.558Z,-3.1
2019-02-25T05:46:31.482Z,-3.1
2019-02-25T05:47:17.416Z,-3.1
2019-02-25T05:48:03.338Z,-3
2019-02-25T05:48:49.321Z,-3
2019-02-25T05:49:35.238Z,-3
2019-02-25T05:50:21.169Z,-2.9
2019-02-25T05:51:07.087Z,-2.9
2019-02-25T05:51:53.038Z,-2.9
2019-02-25T05:52:38.977Z,-2.9
2019-02-25T05:53:24.942Z,-2.9
2019-02-25T05:54:10.874Z,-2.8
2019-02-25T05:54:56.789Z,-2.8
2019-02-25T05:55:42.705Z,-2.8
2019-02-25T05:56:28.623Z,-2.7
2019-02-25T05:57:14.547Z,-2.7
2019-02-25T05:58:00.464Z,-2.7
2019-02-25T05:58:46.412Z,-2.7
2019-02-25T05:59:32.339Z,-2.7
2019-02-25T06:00:18.262Z,-2.7
2019-02-25T06:01:09.140Z,-2.7
2019-02-25T06:01:55.059Z,-2.6
2019-02-25T06:02:41.014Z,-2.6
2019-02-25T06:03:26.957Z,-2.6
2019-02-25T06:04:12.994Z,-2.6
2019-02-25T06:04:58.930Z,-2.6
2019-02-25T06:05:44.854Z,-2.6
2019-02-25T06:06:30.787Z,-2.6
2019-02-25T06:07:16.706Z,-2.6
2019-02-25T06:08:02.620Z,-2.6
2019-02-25T06:08:48.534Z,-2.6
2019-02-25T06:09:34.488Z,-2.6
2019-02-25T06:10:20.415Z,-2.6
2019-02-25T06:11:06.325Z,-2.6
2019-02-25T06:11:52.257Z,-2.6
2019-02-25T06:12:38.170Z,-2.6
2019-02-25T06:13:24.086Z,-2.6
2019-02-25T06:14:10.035Z,-2.6
2019-02-25T06:14:55.983Z,-2.6
2019-02-25T06:15:41.896Z,-2.6
2019-02-25T06:16:27.813Z,-2.6
2019-02-25T06:17:13.729Z,-2.6
2019-02-25T06:17:59.654Z,-2.5
2019-02-25T06:18:45.571Z,-2.5
2019-02-25T06:19:31.521Z,-2.5
2019-02-25T06:20:17.452Z,-2.5
2019-02-25T06:21:03.381Z,-2.4
2019-02-25T06:21:49.311Z,-2.4
2019-02-25T06:22:35.229Z,-2.4
2019-02-25T06:23:21.143Z,-2.4
2019-02-25T06:24:07.055Z,-2.4
2019-02-25T06:24:53.042Z,-2.4
2019-02-25T06:25:38.962Z,-2.4
2019-02-25T06:26:24.872Z,-2.4
2019-02-25T06:27:10.781Z,-2.4
2019-02-25T06:27:56.691Z,-2.4
2019-02-25T06:28:42.616Z,-2.3
2019-02-25T06:29:28.543Z,-2.3
2019-02-25T06:30:14.491Z,-2.2
2019-02-25T06:31:00.403Z,-2.2
2019-02-25T06:31:46.323Z,-2.2
2019-02-25T06:32:32.235Z,-2.2
2019-02-25T06:33:18.152Z,-2.2
2019-02-25T06:34:04.072Z,-2.2
2019-02-25T06:34:50.016Z,-2.2
2019-02-25T06:35:35.967Z,-2.2
2019-02-25T06:36:21.875Z,-2.1
2019-02-25T06:37:07.811Z,-2.1
2019-02-25T06:37:53.726Z,-2.1
2019-02-25T06:38:39.648Z,-2.1
2019-02-25T06:39:25.619Z,-2.1
2019-02-25T06:40:11.537Z,-2.1
2019-02-25T06:40:57.478Z,-2
2019-02-25T06:41:43.387Z,-2
2019-02-25T06:42:29.308Z,-1.9
2019-02-25T06:43:15.228Z,-1.9
2019-02-25T06:44:01.183Z,-1.9
2019-02-25T06:44:47.103Z,-1.9
2019-02-25T06:45:33.064Z,-1.9
2019-02-25T06:46:21.791Z,-1.9
2019-02-25T06:47:07.723Z,-1.8
2019-02-25T06:47:53.651Z,-1.8
2019-02-25T06:48:39.575Z,-1.8
2019-02-25T06:49:25.563Z,-1.8
2019-02-25T06:50:11.522Z,-1.8
2019-02-25T06:50:57.491Z,-1.7
2019-02-25T06:51:43.413Z,-1.7
2019-02-25T06:52:29.327Z,-1.7
2019-02-25T06:53:15.234Z,-1.6
2019-02-25T06:54:01.154Z,-1.6
2019-02-25T06:54:47.068Z,-1.6
2019-02-25T06:55:33.012Z,-1.6
2019-02-25T06:56:18.961Z,-1.6
2019-02-25T06:57:04.980Z,-1.6
2019-02-25T06:57:50.907Z,-1.5
2019-02-25T06:58:36.838Z,-1.5
2019-02-25T06:59:22.754Z,-1.4
2019-02-25T07:00:08.672Z,-1.4
2019-02-25T07:00:54.611Z,-1.4
2019-02-25T07:01:40.533Z,-1.4
2019-02-25T07:02:26.450Z,-1.3
2019-02-25T07:03:12.365Z,-1.3
2019-02-25T07:03:58.297Z,-1.3
2019-02-25T07:04:44.209Z,-1.2
2019-02-25T07:05:30.140Z,-1.2
2019-02-25T07:06:16.108Z,-1.1
2019-02-25T07:07:02.019Z,-1.1
2019-02-25T07:07:47.929Z,-1.1
2019-02-25T07:08:33.859Z,-1
2019-02-25T07:09:19.771Z,-1
2019-02-25T07:10:05.707Z,-0.9
2019-02-25T07:10:51.631Z,-0.9
2019-02-25T07:11:37.588Z,-0.9
2019-02-25T07:12:23.509Z,-0.9
2019-02-25T07:13:09.698Z,-0.9
2019-02-25T07:13:55.785Z,-0.8
2019-02-25T07:14:41.846Z,-0.8
2019-02-25T07:15:28.045Z,-0.8
2019-02-25T07:16:14.371Z,-0.8
2019-02-25T07:17:00.465Z,-0.8
2019-02-25T07:17:47.560Z,-0.8
2019-02-25T07:18:33.836Z,-0.8
2019-02-25T07:19:20.721Z,-0.8
2019-02-25T07:20:06.830Z,-0.8
2019-02-25T07:20:52.886Z,-0.8
2019-02-25T07:21:39.045Z,-0.8
2019-02-25T07:22:25.355Z,-0.8
2019-02-25T07:23:12.595Z,-0.8
2019-02-25T07:23:58.697Z,-0.8
2019-02-25T07:24:52.575Z,-0.8
2019-02-25T07:25:36.885Z,-0.8
2019-02-25T07:26:23.007Z,-0.8
2019-02-25T07:27:09.136Z,-0.8
2019-02-25T07:27:56.213Z,-0.8
2019-02-25T07:28:49.188Z,-0.8
2019-02-25T07:29:35.267Z,-0.8
2019-02-25T07:30:23.226Z,-0.8
2019-02-25T07:31:12.450Z,-0.8
2019-02-25T07:31:58.865Z,-0.8
2019-02-25T07:32:45.017Z,-0.8
2019-02-25T07:33:31.056Z,-0.7
2019-02-25T07:34:18.140Z,-0.7
2019-02-25T07:35:05.174Z,-0.7
2019-02-25T07:35:52.872Z,-0.7
2019-02-25T07:36:41.620Z,-0.6
2019-02-25T07:37:27.758Z,-0.5
2019-02-25T07:38:15.085Z,-0.4
2019-02-25T07:39:02.137Z,-0.3
2019-02-25T07:39:48.819Z,-0.1
2019-02-25T07:40:34.915Z,0.4
2019-02-25T07:41:20.928Z,0.8
2019-02-25T07:42:07.023Z,1
2019-02-25T07:42:53.030Z,1
2019-02-25T07:43:39.437Z,1
2019-02-25T07:44:25.504Z,1
2019-02-25T07:45:11.623Z,1
2019-02-25T07:45:57.793Z,0.9
2019-02-25T07:46:43.870Z,0.9
2019-02-25T07:47:30.019Z,0.9
2019-02-25T07:48:17.083Z,1.1
2019-02-25T07:49:03.222Z,1
2019-02-25T07:49:49.315Z,0.9
2019-02-25T07:50:35.647Z,0.8
2019-02-25T07:51:21.693Z,0.8
2019-02-25T07:52:08.036Z,0.9
2019-02-25T07:52:54.073Z,0.9
2019-02-25T07:53:40.193Z,0.9
2019-02-25T07:54:26.326Z,0.9
2019-02-25T07:55:13.326Z,0.9
2019-02-25T07:56:02.254Z,1.1
2019-02-25T07:56:48.933Z,1.1
2019-02-25T07:57:34.996Z,1.2
2019-02-25T07:58:21.160Z,1.1
2019-02-25T07:59:07.453Z,1
2019-02-25T07:59:53.505Z,1
2019-02-25T08:00:39.552Z,1.1
2019-02-25T08:01:25.799Z,1.3
2019-02-25T08:02:11.834Z,1.4
2019-02-25T08:02:57.982Z,1.6
2019-02-25T08:03:44.107Z,1.7
2019-02-25T08:04:30.157Z,1.8
2019-02-25T08:05:17.134Z,1.7
2019-02-25T08:06:03.813Z,1.8
2019-02-25T08:06:50.335Z,1.8
2019-02-25T08:11:06.370Z,2.1
2019-02-25T08:11:52.430Z,2.1
2019-02-25T08:12:41.342Z,2.1
2019-02-25T08:13:30.404Z,2.1
2019-02-25T08:14:17.828Z,2.1
2019-02-25T08:15:05.114Z,2.1
2019-02-25T08:15:51.601Z,2.1
2019-02-25T08:16:42.530Z,2.1
2019-02-25T08:17:29.993Z,2.1
2019-02-25T08:18:18.641Z,2.1
2019-02-25T08:19:06.328Z,2.1
2019-02-25T08:19:52.430Z,2.1
2019-02-25T08:20:39.826Z,2.1
2019-02-25T08:21:26.804Z,2.1
2019-02-25T08:22:14.960Z,2.1
2019-02-25T08:24:42.807Z,2.1
2019-02-25T08:25:28.873Z,2.1
2019-02-25T08:26:15.960Z,2.1
2019-02-25T08:27:03.916Z,2.1
2019-02-25T08:27:52.982Z,2.1
2019-02-25T08:28:41.995Z,2.1
2019-02-25T08:29:28.258Z,2.1
2019-02-25T08:30:15.733Z,2.1
2019-02-25T08:31:06.634Z,2.1
2019-02-25T08:31:53.032Z,2.1
2019-02-25T08:32:39.148Z,2.1
2019-02-25T08:33:27.776Z,2.1
2019-02-25T08:34:18.789Z,2.1
2019-02-25T08:35:05.478Z,2.1
2019-02-25T08:35:52.893Z,2.1
2019-02-25T08:36:46.382Z,2.1
2019-02-25T08:37:34.547Z,2.1
2019-02-25T08:39:13.777Z,2.2
2019-02-25T08:40:03.075Z,2.2
2019-02-25T08:40:49.184Z,2.2
2019-02-25T08:41:38.598Z,2.2
2019-02-25T08:42:24.723Z,2.2
2019-02-25T08:43:11.770Z,2.2
2019-02-25T08:43:58.335Z,2.2
2019-02-25T08:44:45.495Z,2.2
2019-02-25T08:45:32.023Z,2.2
2019-02-25T08:46:18.897Z,2.2
2019-02-25T08:47:05.280Z,2.2
2019-02-25T08:47:52.697Z,2.2
2019-02-25T08:48:38.832Z,2.2
2019-02-25T08:49:24.958Z,2.2
2019-02-25T08:50:13.945Z,2.2
2019-02-25T08:51:00.250Z,2.2
2019-02-25T08:51:46.374Z,2.2
2019-02-25T08:52:35.871Z,2.2
2019-02-25T08:53:23.944Z,2.2
2019-02-25T08:54:10.388Z,2.2
2019-02-25T08:54:57.769Z,2.2
2019-02-25T08:55:45.261Z,2.2
2019-02-25T08:56:32.584Z,2.2
2019-02-25T08:57:20.635Z,2.2
2019-02-25T08:58:17.503Z,2.2
2019-02-25T09:02:52.960Z,2.2
2019-02-25T09:03:48.833Z,2.2
2019-02-25T09:12:06.528Z,2.3
2019-02-25T09:12:58.752Z,2.3
2019-02-25T09:13:52.051Z,2.3
2019-02-25T09:14:39.869Z,2.3
2019-02-25T09:15:27.539Z,2.3
2019-02-25T09:16:15.710Z,2.3
2019-02-25T09:17:07.679Z,2.3
2019-02-25T09:17:56.374Z,2.3
2019-02-25T09:18:45.744Z,2.3
2019-02-25T09:19:34.906Z,2.3
2019-02-25T09:24:09.781Z,2.4
2019-02-25T09:28:51.666Z,2.4
2019-02-25T09:37:08.628Z,2.4
2019-02-25T09:38:01.633Z,2.4
2019-02-25T09:38:56.701Z,2.5
2019-02-25T09:44:28.467Z,2.5
2019-02-25T09:46:19.266Z,2.6
2019-02-25T09:47:12.055Z,2.6
2019-02-25T09:48:03.640Z,2.6
2019-02-25T09:48:53.217Z,2.6
2019-02-25T10:00:00.360Z,2.6
2019-02-25T10:07:20.386Z,2.7
2019-02-25T10:12:46.172Z,2.7
2019-02-25T10:13:32.102Z,2.7
2019-02-25T10:14:18.031Z,2.7
2019-02-25T10:15:05.111Z,2.7
2019-02-25T10:15:51.136Z,2.7
2019-02-25T10:16:37.065Z,2.7
2019-02-25T10:17:23.886Z,2.7
2019-02-25T10:18:10.089Z,2.7
2019-02-25T10:18:56.049Z,2.7
2019-02-25T10:19:41.968Z,2.7
2019-02-25T10:20:27.902Z,2.7
2019-02-25T10:21:13.864Z,2.7
2019-02-25T10:21:59.808Z,2.7
2019-02-25T10:22:45.737Z,2.8
2019-02-25T10:23:31.666Z,2.8
2019-02-25T10:24:17.589Z,2.8
2019-02-25T10:25:03.512Z,2.8
2019-02-25T10:25:49.473Z,2.8
2019-02-25T10:26:35.389Z,2.8
2019-02-25T10:27:21.322Z,2.8
2019-02-25T10:28:07.243Z,2.9
2019-02-25T10:28:53.167Z,2.9
2019-02-25T10:29:39.103Z,2.9
2019-02-25T10:30:25.027Z,2.9
2019-02-25T10:31:12.707Z,2.9
2019-02-25T10:32:00.101Z,2.9
2019-02-25T10:32:46.564Z,2.9
2019-02-25T10:33:32.495Z,2.9
2019-02-25T10:34:18.412Z,2.9
2019-02-25T10:35:04.340Z,2.9
2019-02-25T10:35:50.299Z,2.9
2019-02-25T10:36:36.211Z,2.9
2019-02-25T10:37:22.164Z,2.9
2019-02-25T10:38:08.082Z,2.9
2019-02-25T10:38:54.004Z,2.9
2019-02-25T10:39:41.197Z,2.9
2019-02-25T10:40:28.855Z,2.9
2019-02-25T10:41:16.555Z,2.9
2019-02-25T10:42:02.587Z,2.9
2019-02-25T10:42:48.522Z,3
2019-02-25T10:43:36.406Z,3
2019-02-25T10:44:22.450Z,3
2019-02-25T10:45:08.935Z,3
2019-02-25T10:45:56.596Z,3
2019-02-25T10:46:43.234Z,3
2019-02-25T10:47:30.408Z,3
2019-02-25T10:48:17.637Z,3
2019-02-25T10:49:11.434Z,3.1
2019-02-25T10:49:57.045Z,3.1
2019-02-25T10:50:44.473Z,3.1
2019-02-25T10:51:30.420Z,3.1
2019-02-25T10:52:17.253Z,3.1
2019-02-25T10:53:03.828Z,3.1
2019-02-25T10:53:51.473Z,3.1
2019-02-25T10:54:37.536Z,3.1
2019-02-25T10:55:23.496Z,3.1
2019-02-25T10:56:09.466Z,3.1
2019-02-25T10:56:55.838Z,3.1
2019-02-25T10:57:42.218Z,3.1
2019-02-25T10:58:29.383Z,3.1
2019-02-25T10:59:16.956Z,3.1
2019-02-25T11:00:04.948Z,3.1
2019-02-25T11:00:52.872Z,3.1
2019-02-25T11:01:39.610Z,3.2
2019-02-25T11:02:26.849Z,3.2
2019-02-25T11:03:13.531Z,3.2
2019-02-25T11:04:01.084Z,3.2
2019-02-25T11:04:47.353Z,3.2
2019-02-25T11:05:34.933Z,3.2
2019-02-25T11:06:20.896Z,3.2
2019-02-25T11:07:07.665Z,3.2
2019-02-25T11:07:55.306Z,3.2
2019-02-25T11:08:41.821Z,3.2
2019-02-25T11:09:29.342Z,3.2
2019-02-25T11:10:16.409Z,3.2
2019-02-25T11:11:03.655Z,3.2
2019-02-25T11:11:50.597Z,3.3
2019-02-25T11:12:40.356Z,3.3
2019-02-25T11:13:27.511Z,3.3
2019-02-25T11:14:14.073Z,3.3
2019-02-25T11:15:00.012Z,3.3
2019-02-25T11:15:47.867Z,3.3
2019-02-25T11:16:34.271Z,3.4
2019-02-25T11:17:20.862Z,3.4
2019-02-25T11:18:08.305Z,3.4
2019-02-25T11:18:55.102Z,3.4
2019-02-25T11:19:42.278Z,3.4
2019-02-25T11:20:29.244Z,3.4
2019-02-25T11:21:16.840Z,3.4
2019-02-25T11:22:02.808Z,3.4
2019-02-25T11:22:48.771Z,3.4
2019-02-25T11:23:34.720Z,3.4
2019-02-25T11:24:22.401Z,3.4